createdAt,value
2018-03-29T00:02:04.035Z,2.90
2018-03-29T00:04:32.879Z,3.17
2018-03-29T00:07:01.747Z,3.37
2018-03-29T00:09:30.618Z,3.80
2018-03-29T00:11:59.466Z,3.20
2018-03-29T00:14:28.522Z,3.63
2018-03-29T00:16:57.375Z,5.13
2018-03-29T00:19:26.237Z,3.10
2018-03-29T00:21:55.226Z,3.30
2018-03-29T00:24:24.760Z,3.70
2018-03-29T00:26:53.642Z,3.87
2018-03-29T00:29:22.482Z,3.40
2018-03-29T00:31:51.390Z,4.00
2018-03-29T00:34:20.239Z,3.97
2018-03-29T00:36:49.103Z,4.43
2018-03-29T00:39:17.999Z,4.03
2018-03-29T00:41:46.868Z,4.60
2018-03-29T00:44:15.723Z,4.10
2018-03-29T00:46:44.642Z,4.53
2018-03-29T00:49:13.499Z,4.30
2018-03-29T00:51:42.351Z,4.33
2018-03-29T00:54:12.133Z,4.60
2018-03-29T00:56:40.988Z,4.50
2018-03-29T00:59:09.842Z,6.90
2018-03-29T01:01:38.717Z,5.00
2018-03-29T01:04:07.556Z,5.37
2018-03-29T01:06:36.467Z,5.00
2018-03-29T01:09:05.317Z,5.27
2018-03-29T01:11:34.384Z,5.20
2018-03-29T01:14:05.878Z,4.70
2018-03-29T01:16:34.783Z,4.67
2018-03-29T01:19:03.607Z,5.20
2018-03-29T01:21:32.539Z,4.90
2018-03-29T01:24:01.394Z,5.03
2018-03-29T01:26:30.319Z,5.23
2018-03-29T01:28:59.375Z,4.90
2018-03-29T01:31:28.221Z,5.13
2018-03-29T01:33:57.039Z,4.80
2018-03-29T01:36:25.916Z,5.07
2018-03-29T01:38:54.897Z,4.53
2018-03-29T01:41:23.989Z,5.40
2018-03-29T01:43:52.834Z,4.90
2018-03-29T01:46:21.691Z,4.63
2018-03-29T01:48:50.586Z,5.50
2018-03-29T01:51:19.430Z,5.20
2018-03-29T01:53:48.278Z,5.30
2018-03-29T01:56:17.179Z,5.53
2018-03-29T01:58:47.039Z,5.50
2018-03-29T02:01:15.885Z,5.90
2018-03-29T02:03:45.207Z,6.50
2018-03-29T02:06:14.055Z,6.40
2018-03-29T02:08:42.903Z,6.83
2018-03-29T02:11:11.778Z,6.97
2018-03-29T02:13:40.627Z,7.00
2018-03-29T02:16:11.218Z,7.00
2018-03-29T02:18:40.193Z,7.73
2018-03-29T02:21:09.035Z,7.37
2018-03-29T02:23:37.878Z,7.70
2018-03-29T02:26:06.722Z,7.93
2018-03-29T02:28:37.334Z,7.80
2018-03-29T02:31:06.207Z,8.03
2018-03-29T02:33:35.014Z,8.60
2018-03-29T02:36:03.911Z,8.83
2018-03-29T02:38:32.755Z,8.23
2018-03-29T02:41:01.602Z,8.90
2018-03-29T02:43:30.507Z,9.50
2018-03-29T02:45:59.365Z,9.90
2018-03-29T02:48:28.210Z,9.53
2018-03-29T02:50:57.842Z,9.37
2018-03-29T02:53:26.696Z,8.80
2018-03-29T02:55:55.575Z,9.40
2018-03-29T02:58:24.452Z,9.63
2018-03-29T03:00:53.302Z,10.07
2018-03-29T03:03:22.164Z,9.23
2018-03-29T03:05:51.065Z,9.13
2018-03-29T03:08:19.910Z,10.27
2018-03-29T03:10:48.774Z,9.90
2018-03-29T03:13:18.990Z,10.50
2018-03-29T03:15:47.847Z,11.77
2018-03-29T03:18:16.694Z,11.33
2018-03-29T03:20:45.611Z,11.33
2018-03-29T03:23:14.422Z,11.37
2018-03-29T03:25:43.278Z,11.13
2018-03-29T03:28:12.205Z,12.20
2018-03-29T03:30:41.063Z,12.47
2018-03-29T03:33:09.974Z,13.03
2018-03-29T03:35:38.833Z,12.33
2018-03-29T03:38:07.687Z,12.93
2018-03-29T03:40:36.908Z,12.70
2018-03-29T03:43:05.754Z,12.70
2018-03-29T03:45:34.601Z,12.37
2018-03-29T03:48:04.594Z,14.10
2018-03-29T03:50:33.442Z,14.23
2018-03-29T03:53:02.308Z,14.53
2018-03-29T03:55:31.190Z,15.40
2018-03-29T03:58:00.019Z,17.20
2018-03-29T04:00:29.266Z,16.83
2018-03-29T04:02:58.120Z,17.43
2018-03-29T04:05:26.974Z,18.70
2018-03-29T04:07:55.847Z,16.87
2018-03-29T04:10:24.827Z,19.50
2018-03-29T04:12:53.742Z,21.43
2018-03-29T04:15:22.789Z,22.87
2018-03-29T04:17:51.653Z,22.87
2018-03-29T04:20:20.806Z,21.33
2018-03-29T04:22:49.661Z,18.23
2018-03-29T04:25:18.513Z,18.90
2018-03-29T04:27:48.090Z,18.80
2018-03-29T04:30:17.198Z,19.30
2018-03-29T04:32:46.037Z,19.03
2018-03-29T04:35:14.977Z,18.03
2018-03-29T04:37:43.790Z,18.10
2018-03-29T04:40:12.839Z,21.40
2018-03-29T04:42:41.861Z,21.60
2018-03-29T04:45:10.699Z,21.40
2018-03-29T04:47:40.234Z,20.23
2018-03-29T04:50:09.084Z,21.00
2018-03-29T04:52:38.078Z,22.13
2018-03-29T04:55:06.969Z,21.37
2018-03-29T04:57:35.830Z,20.13
2018-03-29T05:00:04.736Z,18.90
2018-03-29T05:02:33.647Z,19.43
2018-03-29T05:05:02.501Z,19.90
2018-03-29T05:07:31.368Z,20.97
2018-03-29T05:10:00.226Z,23.03
2018-03-29T05:12:29.074Z,23.07
2018-03-29T05:15:00.804Z,24.23
2018-03-29T05:17:29.650Z,23.63
2018-03-29T05:19:58.514Z,24.10
2018-03-29T05:22:27.405Z,23.57
2018-03-29T05:24:56.270Z,22.33
2018-03-29T05:27:26.177Z,25.97
2018-03-29T05:29:55.038Z,23.43
2018-03-29T05:32:23.919Z,22.50
2018-03-29T05:34:52.815Z,22.10
2018-03-29T05:37:21.816Z,23.33
2018-03-29T05:39:50.954Z,22.03
2018-03-29T05:42:19.896Z,20.50
2018-03-29T05:44:48.767Z,20.60
2018-03-29T05:47:17.650Z,20.23
2018-03-29T05:49:46.567Z,20.63
2018-03-29T05:52:16.523Z,20.57
2018-03-29T05:54:45.438Z,20.17
2018-03-29T05:57:14.321Z,19.43
2018-03-29T05:59:43.711Z,19.50
2018-03-29T06:02:12.559Z,19.00
2018-03-29T06:04:41.410Z,18.33
2018-03-29T06:07:10.306Z,19.30
2018-03-29T06:09:39.170Z,17.37
2018-03-29T06:12:08.377Z,17.50
2018-03-29T06:14:43.070Z,18.67
2018-03-29T06:17:19.590Z,18.37
2018-03-29T06:19:48.461Z,17.00
2018-03-29T06:22:17.306Z,19.00
2018-03-29T06:24:47.374Z,18.17
2018-03-29T06:27:16.231Z,18.77
2018-03-29T06:29:45.144Z,31.53
2018-03-29T06:32:13.999Z,24.27
2018-03-29T06:34:42.817Z,19.23
2018-03-29T06:37:11.730Z,18.30
2018-03-29T06:39:40.605Z,18.40
2018-03-29T06:42:09.475Z,19.73
2018-03-29T06:44:39.215Z,20.93
2018-03-29T06:47:08.073Z,19.60
2018-03-29T06:49:36.935Z,21.47
2018-03-29T06:52:06.079Z,19.50
2018-03-29T06:54:34.927Z,19.77
2018-03-29T06:57:03.802Z,19.60
2018-03-29T06:59:34.732Z,18.07
2018-03-29T07:02:03.573Z,17.13
2018-03-29T07:04:32.436Z,16.50
2018-03-29T07:07:01.296Z,18.27
2018-03-29T07:09:30.158Z,18.23
2018-03-29T07:11:59.295Z,18.30
2018-03-29T07:14:28.134Z,20.37
2018-03-29T07:16:57.007Z,20.20
2018-03-29T07:19:27.014Z,18.57
2018-03-29T07:21:55.878Z,18.70
2018-03-29T07:24:24.744Z,19.37
2018-03-29T07:26:53.660Z,18.40
2018-03-29T07:29:22.515Z,17.67
2018-03-29T07:31:51.633Z,17.30
2018-03-29T07:34:20.506Z,15.97
2018-03-29T07:36:49.376Z,15.03
2018-03-29T07:39:18.255Z,13.73
2018-03-29T07:41:47.129Z,12.57
2018-03-29T07:44:16.298Z,12.23
2018-03-29T07:46:45.146Z,12.30
2018-03-29T07:49:14.877Z,13.53
2018-03-29T07:51:43.798Z,13.50
2018-03-29T07:54:12.643Z,13.10
2018-03-29T07:56:41.544Z,13.63
2018-03-29T07:59:11.478Z,12.87
2018-03-29T08:01:40.343Z,14.23
2018-03-29T08:04:09.201Z,13.40
2018-03-29T08:06:38.482Z,12.40
2018-03-29T08:09:07.898Z,13.90
2018-03-29T08:11:36.747Z,14.87
2018-03-29T08:14:06.179Z,13.27
2018-03-29T08:16:35.040Z,14.20
2018-03-29T08:19:03.911Z,12.23
2018-03-29T08:21:33.563Z,11.37
2018-03-29T08:24:02.427Z,9.80
2018-03-29T08:26:31.417Z,9.97
2018-03-29T08:29:00.311Z,9.67
2018-03-29T08:31:29.155Z,10.27
2018-03-29T08:33:58.328Z,9.00
2018-03-29T08:36:27.180Z,10.73
2018-03-29T08:38:56.051Z,8.63
2018-03-29T08:41:24.932Z,9.40
2018-03-29T08:43:53.773Z,8.73
2018-03-29T08:46:22.842Z,9.73
2018-03-29T08:48:51.694Z,8.57
2018-03-29T08:51:20.562Z,7.90
2018-03-29T08:53:49.569Z,7.53
2018-03-29T08:56:18.439Z,7.50
2018-03-29T08:58:47.290Z,8.53
2018-03-29T09:01:16.211Z,9.57
2018-03-29T09:03:45.137Z,8.00
2018-03-29T09:06:13.999Z,7.50
2018-03-29T09:08:43.072Z,7.70
2018-03-29T09:11:11.927Z,8.77
2018-03-29T09:13:40.776Z,7.67
2018-03-29T09:16:10.804Z,6.93
2018-03-29T09:18:39.678Z,5.97
2018-03-29T09:21:08.658Z,6.10
2018-03-29T09:23:38.202Z,5.37
2018-03-29T09:26:07.057Z,6.17
2018-03-29T09:28:36.267Z,5.43
2018-03-29T09:31:05.171Z,7.43
2018-03-29T09:33:34.032Z,5.73
2018-03-29T09:36:02.902Z,4.50
2018-03-29T09:38:31.791Z,5.53
2018-03-29T09:41:00.680Z,5.70
2018-03-29T09:43:29.536Z,7.87
2018-03-29T09:45:58.482Z,6.23
2018-03-29T09:48:27.381Z,6.47
2018-03-29T09:50:56.221Z,6.73
2018-03-29T09:53:25.086Z,7.43
2018-03-29T09:55:53.967Z,5.77
2018-03-29T09:58:25.067Z,5.97
2018-03-29T10:00:53.917Z,7.10
2018-03-29T10:03:22.818Z,6.87
2018-03-29T10:05:51.675Z,6.10
2018-03-29T10:08:20.539Z,5.53
2018-03-29T10:10:49.900Z,7.50
2018-03-29T10:13:18.727Z,4.37
2018-03-29T10:15:47.583Z,5.90
2018-03-29T10:18:16.472Z,3.80
2018-03-29T10:20:45.317Z,6.63
2018-03-29T10:23:14.167Z,4.17
2018-03-29T10:25:44.093Z,3.97
2018-03-29T10:28:12.956Z,3.13
2018-03-29T10:30:41.782Z,3.37
2018-03-29T10:33:11.538Z,8.83
2018-03-29T10:35:40.434Z,3.03
2018-03-29T10:38:09.239Z,5.03
2018-03-29T10:40:38.108Z,3.93
2018-03-29T10:43:07.050Z,3.73
2018-03-29T10:45:35.939Z,4.43
2018-03-29T10:48:04.789Z,2.90
2018-03-29T10:50:35.101Z,3.10
2018-03-29T10:53:03.974Z,3.10
2018-03-29T10:55:32.847Z,3.50
2018-03-29T10:58:02.035Z,2.93
2018-03-29T11:00:30.839Z,2.10
2018-03-29T11:02:59.707Z,2.53
2018-03-29T11:05:28.614Z,4.30
2018-03-29T11:07:57.467Z,3.07
2018-03-29T11:10:26.361Z,2.33
2018-03-29T11:12:55.253Z,5.63
2018-03-29T11:15:24.186Z,6.43
2018-03-29T11:17:53.176Z,3.80
2018-03-29T11:20:22.079Z,2.70
2018-03-29T11:22:50.958Z,3.70
2018-03-29T11:25:19.813Z,2.50
2018-03-29T11:27:50.421Z,2.53
2018-03-29T11:30:19.276Z,3.50
2018-03-29T11:32:48.138Z,4.20
2018-03-29T11:35:17.013Z,2.37
2018-03-29T11:37:45.878Z,2.80
2018-03-29T11:40:14.920Z,3.30
2018-03-29T11:42:43.775Z,4.77
2018-03-29T11:45:12.624Z,4.17
2018-03-29T11:47:44.014Z,3.23
2018-03-29T11:50:12.863Z,3.30
2018-03-29T11:52:41.733Z,3.27
2018-03-29T11:55:10.647Z,4.10
2018-03-29T11:57:39.499Z,3.50
2018-03-29T12:00:08.346Z,2.83
2018-03-29T12:02:37.275Z,2.63
2018-03-29T12:05:06.128Z,3.20
2018-03-29T12:07:34.981Z,3.30
2018-03-29T12:10:03.947Z,5.70
2018-03-29T12:12:36.919Z,2.77
2018-03-29T12:15:05.770Z,5.17
2018-03-29T12:17:34.619Z,3.73
2018-03-29T12:20:04.712Z,4.33
2018-03-29T12:22:33.558Z,2.97
2018-03-29T12:25:02.511Z,2.80
2018-03-29T12:27:31.299Z,2.83
2018-03-29T12:30:00.481Z,3.03
2018-03-29T12:32:29.355Z,5.50
2018-03-29T12:34:58.259Z,3.70
2018-03-29T12:37:27.160Z,2.13
2018-03-29T12:39:56.131Z,4.20
2018-03-29T12:42:25.032Z,3.23
2018-03-29T12:44:53.866Z,2.77
2018-03-29T12:47:22.698Z,4.27
2018-03-29T12:49:52.336Z,5.50
2018-03-29T12:52:21.238Z,5.03
2018-03-29T12:54:56.073Z,5.37
2018-03-29T12:57:30.907Z,2.67
2018-03-29T13:00:00.076Z,2.73
2018-03-29T13:02:29.192Z,1.83
2018-03-29T13:04:58.083Z,3.87
2018-03-29T13:07:27.360Z,3.30
2018-03-29T13:09:56.534Z,2.63
2018-03-29T13:12:25.391Z,2.57
2018-03-29T13:14:54.260Z,3.53
2018-03-29T13:17:23.103Z,5.13
2018-03-29T13:19:52.135Z,2.83
2018-03-29T13:22:21.004Z,2.60
2018-03-29T13:24:49.854Z,2.20
2018-03-29T13:27:18.736Z,3.30
2018-03-29T13:29:48.494Z,3.73
2018-03-29T13:32:17.391Z,3.87
2018-03-29T13:34:46.259Z,5.60
2018-03-29T13:37:15.180Z,5.07
2018-03-29T13:39:44.040Z,4.03
2018-03-29T13:42:12.895Z,3.03
2018-03-29T13:44:41.783Z,3.33
2018-03-29T13:47:10.659Z,3.67
2018-03-29T13:49:39.568Z,3.20
2018-03-29T13:52:08.451Z,4.03
2018-03-29T13:54:37.298Z,4.53
2018-03-29T13:57:06.306Z,3.87
2018-03-29T13:59:36.647Z,3.00
2018-03-29T14:02:05.548Z,4.03
2018-03-29T14:04:34.405Z,3.50
2018-03-29T14:07:03.260Z,2.47
2018-03-29T14:09:32.511Z,3.03
2018-03-29T14:12:01.463Z,3.97
2018-03-29T14:14:30.324Z,3.13
2018-03-29T14:17:00.013Z,3.27
2018-03-29T14:19:28.894Z,4.03
2018-03-29T14:21:57.795Z,3.00
2018-03-29T14:24:26.644Z,3.58
2018-03-29T14:26:55.539Z,2.95
2018-03-29T14:29:24.390Z,5.05
2018-03-29T14:31:53.545Z,4.87
2018-03-29T14:34:23.075Z,4.12
2018-03-29T14:36:52.119Z,3.55
2018-03-29T14:39:20.974Z,3.72
2018-03-29T14:41:49.874Z,2.55
2018-03-29T14:44:18.720Z,2.40
2018-03-29T14:46:47.604Z,4.33
2018-03-29T14:49:16.456Z,4.13
2018-03-29T14:51:45.316Z,4.77
2018-03-29T14:54:14.185Z,2.10
2018-03-29T14:56:43.028Z,3.60
2018-03-29T14:59:11.927Z,4.10
2018-03-29T15:01:40.778Z,3.07
2018-03-29T15:04:09.638Z,4.00
2018-03-29T15:06:38.519Z,4.77
2018-03-29T15:09:07.410Z,2.83
2018-03-29T15:11:36.278Z,3.40
2018-03-29T15:14:05.174Z,3.40
2018-03-29T15:16:34.091Z,3.60
2018-03-29T15:19:03.099Z,3.37
2018-03-29T15:21:31.951Z,5.17
2018-03-29T15:24:00.971Z,3.83
2018-03-29T15:26:30.130Z,3.90
2018-03-29T15:28:58.939Z,3.93
2018-03-29T15:31:27.805Z,4.20
2018-03-29T15:33:57.072Z,4.83
2018-03-29T15:36:25.925Z,3.80
2018-03-29T15:38:55.103Z,3.43
2018-03-29T15:41:24.050Z,3.53
2018-03-29T15:43:53.086Z,4.53
2018-03-29T15:46:21.887Z,3.50
2018-03-29T15:48:50.744Z,3.63
2018-03-29T15:51:19.728Z,4.77
2018-03-29T15:53:48.610Z,2.47
2018-03-29T15:56:17.469Z,5.33
2018-03-29T15:58:46.354Z,6.97
2018-03-29T16:01:15.202Z,4.73
2018-03-29T16:03:44.060Z,3.93
2018-03-29T16:06:13.755Z,3.30
2018-03-29T16:08:42.626Z,8.73
2018-03-29T16:11:11.576Z,7.03
2018-03-29T16:13:42.499Z,6.63
2018-03-29T16:16:11.380Z,4.77
2018-03-29T16:18:40.226Z,4.50
2018-03-29T16:21:09.474Z,6.80
2018-03-29T16:23:38.288Z,4.67
2018-03-29T16:26:07.151Z,3.73
2018-03-29T16:28:36.127Z,3.40
2018-03-29T16:31:04.995Z,2.93
2018-03-29T16:33:33.882Z,3.53
2018-03-29T16:36:03.419Z,2.83
2018-03-29T16:38:32.323Z,3.13
2018-03-29T16:41:01.270Z,4.23
2018-03-29T16:43:30.422Z,2.97
2018-03-29T16:45:59.299Z,4.60
2018-03-29T16:48:28.155Z,5.17
2018-03-29T16:50:57.507Z,4.80
2018-03-29T16:53:26.370Z,6.73
2018-03-29T16:55:55.235Z,4.50
2018-03-29T16:58:24.151Z,2.90
2018-03-29T17:00:53.016Z,3.27
2018-03-29T17:03:21.865Z,5.00
2018-03-29T17:05:51.076Z,5.03
2018-03-29T17:08:20.028Z,3.00
2018-03-29T17:10:49.003Z,3.67
2018-03-29T17:13:17.851Z,5.07
2018-03-29T17:15:46.964Z,3.50
2018-03-29T17:18:15.824Z,2.70
2018-03-29T17:20:44.742Z,4.93
2018-03-29T17:23:14.423Z,5.50
2018-03-29T17:25:43.299Z,3.73
2018-03-29T17:28:12.198Z,3.77
2018-03-29T17:30:41.053Z,3.00
2018-03-29T17:33:09.912Z,3.13
2018-03-29T17:35:38.801Z,3.40
2018-03-29T17:38:08.754Z,3.93
2018-03-29T17:40:37.606Z,3.10
2018-03-29T17:43:06.493Z,4.33
2018-03-29T17:45:35.322Z,2.83
2018-03-29T17:48:04.237Z,3.87
2018-03-29T17:50:33.106Z,2.70
2018-03-29T17:53:01.995Z,3.47
2018-03-29T17:55:30.888Z,3.23
2018-03-29T17:58:00.841Z,4.70
2018-03-29T18:00:29.746Z,2.73
2018-03-29T18:02:58.872Z,3.03
2018-03-29T18:05:27.842Z,3.43
2018-03-29T18:07:56.765Z,3.40
2018-03-29T18:10:25.627Z,2.23
2018-03-29T18:12:54.517Z,3.07
2018-03-29T18:15:24.211Z,3.20
2018-03-29T18:17:53.099Z,2.93
2018-03-29T18:20:21.945Z,3.03
2018-03-29T18:22:50.947Z,4.00
2018-03-29T18:25:19.813Z,3.87
2018-03-29T18:27:48.695Z,4.47
2018-03-29T18:30:17.571Z,3.87
2018-03-29T18:32:47.359Z,4.47
2018-03-29T18:35:16.223Z,2.53
2018-03-29T18:37:45.091Z,3.20
2018-03-29T18:40:14.558Z,3.70
2018-03-29T18:42:43.462Z,3.90
2018-03-29T18:45:12.347Z,2.33
2018-03-29T18:47:41.203Z,3.37
2018-03-29T18:50:10.064Z,3.97
2018-03-29T18:52:38.959Z,2.53
2018-03-29T18:55:07.818Z,2.77
2018-03-29T18:57:36.680Z,3.07
2018-03-29T19:00:05.804Z,2.30
2018-03-29T19:02:34.696Z,3.50
2018-03-29T19:05:03.544Z,3.30
2018-03-29T19:07:32.869Z,2.47
2018-03-29T19:10:01.728Z,3.93
2018-03-29T19:12:30.580Z,4.17
2018-03-29T19:14:59.772Z,3.13
2018-03-29T19:17:28.640Z,4.57
2018-03-29T19:19:57.542Z,2.87
2018-03-29T19:22:26.492Z,5.37
2018-03-29T19:24:55.358Z,2.50
2018-03-29T19:27:24.266Z,2.30
2018-03-29T19:29:53.176Z,2.60
2018-03-29T19:32:22.040Z,5.73
2018-03-29T19:34:50.956Z,7.57
2018-03-29T19:37:19.821Z,5.60
2018-03-29T19:39:48.681Z,4.13
2018-03-29T19:42:18.010Z,4.00
2018-03-29T19:44:46.880Z,2.67
2018-03-29T19:47:15.767Z,5.77
2018-03-29T19:49:44.695Z,3.57
2018-03-29T19:52:13.562Z,4.17
2018-03-29T19:54:42.426Z,7.00
2018-03-29T19:57:13.420Z,5.67
2018-03-29T19:59:43.520Z,7.23
2018-03-29T20:02:12.396Z,7.77
2018-03-29T20:04:41.272Z,7.83
2018-03-29T20:07:10.426Z,7.20
2018-03-29T20:09:39.288Z,7.33
2018-03-29T20:12:08.160Z,5.17
2018-03-29T20:14:37.474Z,4.93
2018-03-29T20:17:06.302Z,7.13
2018-03-29T20:19:35.156Z,8.07
2018-03-29T20:22:04.326Z,2.83
2018-03-29T20:24:33.173Z,3.77
2018-03-29T20:27:02.036Z,4.40
2018-03-29T20:29:31.008Z,3.73
2018-03-29T20:32:00.303Z,6.53
2018-03-29T20:34:29.245Z,3.67
2018-03-29T20:36:58.123Z,3.93
2018-03-29T20:39:27.036Z,3.53
2018-03-29T20:41:55.946Z,3.40
2018-03-29T20:44:25.977Z,4.23
2018-03-29T20:46:54.884Z,4.43
2018-03-29T20:49:23.921Z,4.30
2018-03-29T20:51:54.282Z,3.67
2018-03-29T20:54:23.124Z,5.13
2018-03-29T20:56:51.989Z,3.00
2018-03-29T20:59:21.177Z,4.10
2018-03-29T21:01:50.022Z,2.47
2018-03-29T21:04:18.906Z,3.50
2018-03-29T21:06:47.785Z,2.13
2018-03-29T21:09:16.655Z,3.73
2018-03-29T21:11:46.842Z,2.90
2018-03-29T21:14:15.696Z,3.63
2018-03-29T21:16:44.546Z,4.27
2018-03-29T21:19:13.465Z,3.27
2018-03-29T21:21:42.322Z,4.23
2018-03-29T21:24:11.200Z,2.13
2018-03-29T21:26:40.098Z,4.20
2018-03-29T21:29:09.303Z,2.53
2018-03-29T21:31:38.244Z,5.33
2018-03-29T21:34:07.155Z,3.33
2018-03-29T21:36:37.281Z,2.70
2018-03-29T21:39:06.183Z,3.50
2018-03-29T21:41:35.091Z,2.63
2018-03-29T21:44:03.948Z,4.00
2018-03-29T21:46:33.746Z,5.50
2018-03-29T21:49:03.523Z,4.93
2018-03-29T21:51:32.372Z,3.90
2018-03-29T21:54:01.222Z,6.43
2018-03-29T21:56:30.462Z,5.07
2018-03-29T21:58:59.481Z,6.70
2018-03-29T22:01:28.312Z,5.83
2018-03-29T22:03:57.357Z,4.57
2018-03-29T22:06:26.242Z,4.00
2018-03-29T22:08:55.076Z,4.47
2018-03-29T22:11:23.948Z,4.57
2018-03-29T22:13:55.458Z,3.90
2018-03-29T22:16:24.338Z,3.97
2018-03-29T22:18:53.189Z,3.70
2018-03-29T22:21:22.227Z,5.03
2018-03-29T22:23:51.572Z,4.47
2018-03-29T22:26:20.653Z,3.13
2018-03-29T22:28:49.563Z,6.00
2018-03-29T22:31:18.394Z,4.97
2018-03-29T22:33:47.270Z,6.07
2018-03-29T22:36:16.114Z,4.43
2018-03-29T22:38:45.002Z,3.10
2018-03-29T22:41:13.860Z,4.43
2018-03-29T22:43:42.979Z,3.80
2018-03-29T22:46:11.935Z,3.00
2018-03-29T22:48:40.795Z,4.73
2018-03-29T22:51:09.687Z,5.10
2018-03-29T22:53:38.555Z,4.40
2018-03-29T22:56:07.455Z,4.57
2018-03-29T22:58:36.323Z,4.57
2018-03-29T23:01:05.183Z,3.67
2018-03-29T23:03:34.079Z,2.43
2018-03-29T23:06:02.895Z,3.30
2018-03-29T23:08:31.743Z,3.73
2018-03-29T23:11:00.640Z,2.63
2018-03-29T23:13:29.516Z,5.07
2018-03-29T23:15:58.867Z,5.57
2018-03-29T23:18:27.982Z,2.87
2018-03-29T23:20:56.839Z,4.33
2018-03-29T23:23:25.708Z,3.80
2018-03-29T23:25:55.403Z,4.30
2018-03-29T23:28:24.273Z,2.80
2018-03-29T23:30:53.120Z,3.40
2018-03-29T23:33:22.031Z,2.37
2018-03-29T23:35:50.899Z,1.93
2018-03-29T23:38:19.754Z,3.47
2018-03-29T23:40:48.662Z,3.40
2018-03-29T23:43:17.519Z,2.40
2018-03-29T23:45:46.380Z,4.50
2018-03-29T23:48:15.916Z,2.87
2018-03-29T23:50:44.766Z,3.97
2018-03-29T23:53:13.659Z,3.33
2018-03-29T23:55:42.691Z,2.50
2018-03-29T23:58:16.688Z,2.63
